Time;durP1;ratioP1;P1;durP2;ratioP2;P2;SDS_P1;SDS_P2;PMS_P1;PMS_P2;Temp;Humidity;BMP_temperature;BMP_pressure;BME280_temperature;BME280_humidity;BME280_pressure;Samples;Min_cycle;Max_cycle;Signal;HPM_P1;HPM_P2
2023/02/21 02:15:58;;;;;;;30.50;19.02;;;6.10;99.90;;;;;;4972250;28;20035;-67
2023/02/21 02:18:37;;;;;;;28.15;18.05;;;6.00;99.90;;;;;;4962335;28;20066;-67
2023/02/21 02:21:42;;;;;;;31.70;20.15;;;6.00;99.90;;;;;;4972357;28;20546;-69
2023/02/21 02:24:15;;;;;;;33.50;20.48;;;5.70;99.90;;;;;;4961893;28;20118;-67
2023/02/21 02:27:20;;;;;;;32.80;19.42;;;5.40;99.90;;;;;;4972059;28;20043;-68
2023/02/21 02:30:22;;;;;;;31.73;19.58;;;5.20;99.90;;;;;;4972001;28;20047;-68
2023/02/21 02:33:08;;;;;;;26.17;19.52;;;5.40;99.90;;;;;;4938556;28;20055;-69
2023/02/21 02:35:45;;;;;;;31.15;19.02;;;5.60;99.90;;;;;;4955190;28;20391;-67
2023/02/21 02:38:32;;;;;;;34.00;20.65;;;5.70;99.90;;;;;;4951709;29;20102;-69
2023/02/21 02:41:28;;;;;;;31.55;20.67;;;5.70;99.90;;;;;;4960333;28;20062;-69
2023/02/21 02:44:08;;;;;;;31.73;19.35;;;5.40;99.90;;;;;;4971856;28;20046;-69
2023/02/21 02:46:39;;;;;;;27.90;18.80;;;5.40;99.90;;;;;;4965040;28;20495;-68
2023/02/21 02:49:13;;;;;;;;;;;5.40;99.90;;;;;;4972612;28;20121;-69
2023/02/21 02:51:40;;;;;;;22.75;13.52;;;5.40;99.90;;;;;;4971903;28;20299;-68
2023/02/21 02:54:08;;;;;;;21.92;14.52;;;5.50;99.90;;;;;;4971878;28;20104;-68
2023/02/21 02:56:35;;;;;;;22.85;15.23;;;5.50;99.90;;;;;;4971823;28;20138;-68
2023/02/21 02:59:09;;;;;;;24.42;15.00;;;5.20;99.90;;;;;;4954825;28;20051;-66
2023/02/21 03:02:06;;;;;;;23.05;15.18;;;4.90;99.90;;;;;;4945640;29;20466;-69
2023/02/21 03:05:24;;;;;;;19.23;13.38;;;4.80;99.90;;;;;;4903101;28;20057;-69
2023/02/21 03:08:17;;;;;;;20.45;13.35;;;5.00;99.90;;;;;;4923876;28;20055;-69
2023/02/21 03:11:00;;;;;;;18.70;13.18;;;5.00;99.90;;;;;;4949836;28;20055;-69
2023/02/21 03:13:33;;;;;;;20.05;13.13;;;5.00;99.90;;;;;;4954543;28;20493;-69
2023/02/21 03:16:18;;;;;;;21.17;13.68;;;4.70;99.90;;;;;;4965725;28;20062;-68
2023/02/21 03:18:51;;;;;;;17.02;12.75;;;4.80;99.90;;;;;;4953615;28;20051;-67
2023/02/21 03:21:27;;;;;;;25.23;13.60;;;4.60;99.90;;;;;;4957907;28;20499;-66
2023/02/21 03:23:59;;;;;;;20.85;13.65;;;4.90;99.90;;;;;;4962477;28;20042;-68
2023/02/21 03:26:30;;;;;;;20.88;12.98;;;5.00;99.90;;;;;;4975009;28;20131;-68
2023/02/21 03:28:58;;;;;;;16.70;12.90;;;4.90;99.90;;;;;;4975427;28;20121;-70
2023/02/21 03:31:31;;;;;;;19.70;12.60;;;4.60;99.90;;;;;;4975063;28;20131;-68
2023/02/21 03:33:59;;;;;;;17.20;11.32;;;4.70;99.90;;;;;;4975310;28;20043;-67
2023/02/21 03:36:27;;;;;;;19.05;12.02;;;4.70;99.90;;;;;;4958073;28;20057;-68
2023/02/21 03:38:54;;;;;;;22.40;11.70;;;4.90;99.90;;;;;;4975007;28;20034;-67
2023/02/21 03:41:21;;;;;;;16.67;11.93;;;4.90;99.90;;;;;;4966999;28;20049;-70
2023/02/21 03:43:49;;;;;;;19.25;11.80;;;4.60;99.90;;;;;;4957785;28;20043;-68
2023/02/21 03:46:16;;;;;;;19.52;11.93;;;4.60;99.90;;;;;;4974921;28;20121;-68
2023/02/21 03:48:44;;;;;;;18.20;12.32;;;4.80;99.90;;;;;;4975106;28;20066;-66
2023/02/21 03:51:11;;;;;;;16.77;11.43;;;4.90;99.90;;;;;;4975124;28;20369;-68
2023/02/21 03:53:38;;;;;;;18.60;12.38;;;4.90;99.90;;;;;;4974252;28;20070;-69
2023/02/21 03:56:06;;;;;;;17.92;12.85;;;4.80;99.90;;;;;;4974885;28;20035;-68
2023/02/21 03:58:34;;;;;;;22.38;13.43;;;4.90;99.90;;;;;;4945573;28;20147;-68
2023/02/21 04:01:04;;;;;;;18.75;12.63;;;5.00;99.90;;;;;;4953231;29;20257;-68
2023/02/21 04:03:32;;;;;;;23.52;13.40;;;4.90;99.90;;;;;;4933768;28;20054;-68
2023/02/21 04:05:59;;;;;;;20.55;13.43;;;5.00;99.90;;;;;;4974515;28;20046;-68
2023/02/21 04:08:26;;;;;;;23.77;15.02;;;4.80;99.90;;;;;;4957688;28;20073;-68
2023/02/21 04:10:53;;;;;;;25.90;15.50;;;4.70;99.90;;;;;;4957200;28;20039;-69
2023/02/21 04:13:22;;;;;;;22.27;15.50;;;4.50;99.90;;;;;;4974730;28;20089;-70
2023/02/21 04:15:49;;;;;;;26.75;15.38;;;4.30;99.90;;;;;;4938617;29;20146;-69
2023/02/21 04:18:17;;;;;;;22.05;14.40;;;4.40;99.90;;;;;;4968281;28;20097;-69
2023/02/21 04:20:46;;;;;;;21.42;14.65;;;4.50;99.90;;;;;;4974383;28;20057;-69
2023/02/21 04:23:19;;;;;;;20.63;13.35;;;4.50;99.90;;;;;;4957129;28;20141;-69
2023/02/21 04:25:47;;;;;;;22.15;14.43;;;4.50;99.90;;;;;;4974479;28;20380;-68
2023/02/21 04:28:14;;;;;;;16.17;13.00;;;4.20;99.90;;;;;;4956782;28;20064;-70
2023/02/21 04:30:42;;;;;;;20.10;13.60;;;3.90;99.90;;;;;;4973786;28;20146;-69
2023/02/21 04:33:09;;;;;;;19.55;13.32;;;4.10;99.90;;;;;;4970738;28;20047;-69
2023/02/21 04:35:36;;;;;;;20.77;13.13;;;4.20;99.90;;;;;;4956473;28;20043;-69
2023/02/21 04:38:03;;;;;;;25.33;14.85;;;4.00;99.90;;;;;;4974179;28;20057;-69
2023/02/21 04:40:31;;;;;;;20.42;13.95;;;4.10;99.90;;;;;;4956801;28;20042;-69
2023/02/21 04:42:58;;;;;;;18.65;13.70;;;4.30;99.90;;;;;;4973770;28;20050;-69
2023/02/21 04:45:26;;;;;;;25.70;13.75;;;4.30;99.90;;;;;;4973500;28;20041;-68
2023/02/21 04:47:53;;;;;;;18.80;13.50;;;4.30;99.90;;;;;;4974191;28;20375;-68
2023/02/21 04:50:20;;;;;;;22.90;14.77;;;4.40;99.90;;;;;;4956582;28;20045;-68
2023/02/21 04:52:48;;;;;;;21.25;14.02;;;4.40;99.90;;;;;;4974102;28;20062;-70
2023/02/21 04:55:15;;;;;;;18.02;13.85;;;4.30;99.90;;;;;;4956498;28;20414;-68
2023/02/21 04:57:42;;;;;;;23.65;13.70;;;4.10;99.90;;;;;;4974094;28;20391;-68
2023/02/21 05:00:10;;;;;;;25.30;15.07;;;4.30;99.90;;;;;;4956814;28;20522;-68
2023/02/21 05:02:44;;;;;;;22.48;13.40;;;4.50;99.90;;;;;;4952894;29;20074;-68
2023/02/21 05:05:12;;;;;;;26.45;14.10;;;4.50;99.90;;;;;;4965901;28;20426;-69
2023/02/21 05:07:41;;;;;;;21.08;13.85;;;4.50;99.90;;;;;;4973932;28;20038;-68
2023/02/21 05:10:10;;;;;;;21.15;14.15;;;4.40;99.90;;;;;;4973708;28;20819;-69
2023/02/21 05:12:38;;;;;;;20.10;13.57;;;4.10;99.90;;;;;;4940924;29;20510;-70
2023/02/21 05:15:07;;;;;;;25.35;14.35;;;4.10;99.90;;;;;;4967437;28;20069;-69
2023/02/21 05:17:34;;;;;;;25.73;14.48;;;4.00;99.90;;;;;;4973352;28;20038;-68
2023/02/21 05:20:03;;;;;;;21.42;13.80;;;3.80;99.90;;;;;;4935266;28;20047;-68
2023/02/21 05:22:30;;;;;;;21.75;14.48;;;3.90;99.90;;;;;;4956647;28;20422;-69
2023/02/21 05:24:57;;;;;;;22.25;13.80;;;4.10;99.90;;;;;;4955929;28;20050;-69
2023/02/21 05:27:25;;;;;;;26.45;14.52;;;4.10;99.90;;;;;;4953419;28;20126;-69
2023/02/21 05:29:52;;;;;;;23.92;14.48;;;4.10;99.90;;;;;;4972753;28;20459;-67
2023/02/21 05:32:21;;;;;;;21.20;14.90;;;3.70;99.90;;;;;;4953891;28;20030;-67
2023/02/21 05:34:49;;;;;;;29.95;16.02;;;3.90;99.90;;;;;;4971978;28;20043;-68
2023/02/21 05:37:19;;;;;;;24.10;14.73;;;4.10;99.90;;;;;;4954968;28;20093;-71
2023/02/21 05:39:47;;;;;;;25.90;15.25;;;4.00;99.90;;;;;;4969421;28;20043;-68
2023/02/21 05:42:15;;;;;;;25.15;15.52;;;4.00;99.90;;;;;;4971539;28;20121;-67
2023/02/21 05:44:46;;;;;;;23.77;14.35;;;4.00;99.90;;;;;;4972122;28;20039;-68
2023/02/21 05:47:14;;;;;;;24.92;15.27;;;4.10;99.90;;;;;;4967742;28;20381;-68
2023/02/21 05:49:42;;;;;;;23.92;13.85;;;4.10;99.90;;;;;;4955244;28;20046;-68
2023/02/21 05:52:11;;;;;;;22.45;13.75;;;4.20;99.90;;;;;;4954180;28;20046;-69
2023/02/21 05:54:38;;;;;;;25.67;13.30;;;4.10;99.90;;;;;;4971566;28;20045;-69
2023/02/21 05:57:06;;;;;;;21.77;13.52;;;3.90;99.90;;;;;;4973222;28;20128;-69
2023/02/21 05:59:33;;;;;;;17.65;12.10;;;4.10;99.90;;;;;;4972436;28;20376;-70
2023/02/21 06:02:01;;;;;;;21.02;13.63;;;4.10;99.90;;;;;;4960851;28;20058;-70
2023/02/21 06:04:28;;;;;;;19.83;12.10;;;4.10;99.90;;;;;;4954768;28;20046;-69
2023/02/21 06:06:56;;;;;;;18.73;13.02;;;3.70;99.90;;;;;;4972529;28;20053;-69
2023/02/21 06:09:23;;;;;;;19.90;13.02;;;3.90;99.90;;;;;;4953705;28;20042;-68
2023/02/21 06:11:54;;;;;;;22.35;14.73;;;3.90;99.90;;;;;;4971738;28;20101;-69
2023/02/21 06:14:21;;;;;;;119.72;61.30;;;4.10;99.90;;;;;;4971089;28;20438;-68
2023/02/21 06:16:48;;;;;;;272.85;130.00;;;4.20;99.90;;;;;;4968527;28;20065;-68
2023/02/21 06:19:17;;;;;;;60.33;38.38;;;4.60;99.90;;;;;;4967115;28;20150;-69
2023/02/21 06:21:45;;;;;;;45.25;29.27;;;4.60;99.90;;;;;;4961059;28;20042;-65
2023/02/21 06:24:13;;;;;;;70.32;39.58;;;4.70;99.90;;;;;;4962911;28;20047;-71
2023/02/21 06:26:41;;;;;;;36.28;22.80;;;4.80;99.90;;;;;;4970313;28;20042;-69
2023/02/21 06:29:09;;;;;;;28.40;17.20;;;4.90;99.90;;;;;;4970594;28;20053;-69
2023/02/21 06:31:37;;;;;;;20.85;15.63;;;4.70;99.90;;;;;;4968266;28;20034;-68
2023/02/21 06:34:06;;;;;;;20.40;13.88;;;4.70;99.90;;;;;;4968398;28;20100;-70
2023/02/21 06:36:34;;;;;;;24.67;14.70;;;4.80;99.90;;;;;;4966980;28;20097;-71
2023/02/21 06:39:01;;;;;;;22.75;14.60;;;4.80;99.90;;;;;;4968082;28;20038;-67
2023/02/21 06:41:30;;;;;;;20.50;13.63;;;4.90;99.90;;;;;;4971846;28;20054;-69
2023/02/21 06:43:58;;;;;;;20.58;13.75;;;5.10;99.90;;;;;;4971140;28;20035;-69
2023/02/21 06:46:28;;;;;;;22.88;15.02;;;5.20;99.90;;;;;;4954323;28;20046;-70
2023/02/21 06:48:56;;;;;;;22.65;13.23;;;5.40;99.90;;;;;;4967639;28;20074;-69
2023/02/21 06:51:28;;;;;;;30.48;15.52;;;5.50;99.90;;;;;;4971861;28;20443;-71
2023/02/21 06:53:57;;;;;;;23.80;15.68;;;5.20;99.90;;;;;;4971316;28;20039;-68
2023/02/21 06:56:24;;;;;;;24.70;16.88;;;5.30;99.90;;;;;;4971956;28;20090;-70
2023/02/21 06:58:52;;;;;;;27.13;16.85;;;5.30;99.90;;;;;;4971836;28;20054;-66
2023/02/21 07:01:21;;;;;;;24.85;17.55;;;5.30;99.90;;;;;;4965692;28;20538;-69
2023/02/21 07:03:49;;;;;;;27.00;16.42;;;5.30;99.90;;;;;;4933009;28;20054;-69
2023/02/21 07:06:16;;;;;;;30.30;17.60;;;5.10;99.90;;;;;;4971923;28;20397;-68
2023/02/21 07:08:44;;;;;;;25.83;16.80;;;5.30;99.90;;;;;;4971696;28;20047;-69
2023/02/21 07:11:12;;;;;;;26.38;17.42;;;5.50;99.90;;;;;;4972179;28;20035;-69
2023/02/21 07:13:40;;;;;;;30.88;17.88;;;5.70;99.90;;;;;;4971836;28;20413;-68
2023/02/21 07:16:07;;;;;;;27.02;16.70;;;5.50;99.90;;;;;;4971092;28;20122;-72
2023/02/21 07:18:35;;;;;;;25.42;16.95;;;5.20;99.90;;;;;;4971007;28;20070;-71
2023/02/21 07:21:02;;;;;;;24.40;16.50;;;5.50;99.90;;;;;;4971251;28;20039;-70
2023/02/21 07:23:30;;;;;;;25.20;16.23;;;5.60;99.90;;;;;;4958622;28;20450;-71
2023/02/21 07:26:05;;;;;;;26.40;16.65;;;5.30;99.90;;;;;;4939268;28;20509;-70
2023/02/21 07:28:33;;;;;;;23.35;16.92;;;5.50;99.90;;;;;;4971398;28;20030;-70
2023/02/21 07:31:00;;;;;;;29.88;16.75;;;5.80;99.90;;;;;;4971786;28;20047;-68
2023/02/21 07:33:28;;;;;;;27.08;16.40;;;6.20;99.90;;;;;;4971289;28;20066;-71
2023/02/21 07:35:55;;;;;;;30.42;17.17;;;6.30;99.90;;;;;;4971090;28;20490;-70
2023/02/21 07:38:28;;;;;;;24.58;15.77;;;6.30;99.90;;;;;;4971862;28;20043;-68
2023/02/21 07:40:57;;;;;;;28.08;17.27;;;6.50;99.90;;;;;;4958033;28;20042;-72
2023/02/21 07:43:26;;;;;;;24.90;17.10;;;6.70;99.90;;;;;;4970524;28;20136;-70
2023/02/21 07:45:54;;;;;;;30.92;16.83;;;6.80;99.90;;;;;;4970828;28;20038;-69
2023/02/21 07:48:22;;;;;;;30.63;18.20;;;6.90;99.90;;;;;;4970769;28;20039;-68
2023/02/21 07:50:49;;;;;;;27.60;16.52;;;6.90;99.90;;;;;;4953662;28;20513;-69
2023/02/21 07:53:17;;;;;;;26.33;17.73;;;7.00;99.90;;;;;;4953871;28;20046;-69
2023/02/21 07:55:45;;;;;;;27.33;16.85;;;7.00;99.90;;;;;;4971107;28;20047;-70
2023/02/21 07:58:12;;;;;;;36.28;19.15;;;7.30;99.90;;;;;;4971168;28;20375;-72
2023/02/21 08:00:39;;;;;;;24.02;15.98;;;7.50;99.90;;;;;;4961850;28;20123;-71
2023/02/21 08:03:11;;;;;;;27.17;17.45;;;7.70;99.90;;;;;;4971361;28;20401;-69
2023/02/21 08:05:38;;;;;;;27.58;17.92;;;7.50;99.90;;;;;;4971699;28;20065;-69
2023/02/21 08:08:08;;;;;;;29.10;18.35;;;7.30;99.90;;;;;;4974777;28;20078;-69
2023/02/21 08:10:35;;;;;;;27.73;17.33;;;7.60;99.90;;;;;;4974448;28;20043;-69
2023/02/21 08:13:04;;;;;;;29.95;16.90;;;8.00;99.70;;;;;;4974666;28;20284;-69
2023/02/21 08:15:31;;;;;;;25.67;15.70;;;8.10;98.80;;;;;;4974330;28;20046;-70
2023/02/21 08:17:59;;;;;;;25.38;15.00;;;8.20;98.60;;;;;;4974863;28;20122;-69
2023/02/21 08:20:26;;;;;;;30.38;17.38;;;8.30;98.40;;;;;;4974297;28;20497;-70
2023/02/21 08:22:54;;;;;;;28.85;17.38;;;8.30;97.80;;;;;;4974968;28;20050;-70
2023/02/21 08:25:21;;;;;;;27.20;17.17;;;8.40;98.00;;;;;;4974341;28;20039;-68
2023/02/21 08:27:52;;;;;;;26.00;16.98;;;8.60;97.40;;;;;;4974671;28;20039;-71
2023/02/21 08:30:20;;;;;;;25.02;15.98;;;8.70;97.40;;;;;;4973630;28;20450;-70
2023/02/21 08:32:47;;;;;;;30.25;17.58;;;8.80;97.20;;;;;;4974076;28;20071;-70
2023/02/21 08:35:15;;;;;;;29.27;17.63;;;8.90;97.10;;;;;;4962326;28;20046;-70
2023/02/21 08:37:48;;;;;;;33.72;17.92;;;9.00;97.20;;;;;;4974330;28;20467;-70
2023/02/21 08:40:19;;;;;;;27.35;16.60;;;9.00;95.90;;;;;;4973919;28;20051;-69
2023/02/21 08:42:50;;;;;;;32.45;16.83;;;9.00;95.60;;;;;;4974678;28;20406;-70
2023/02/21 08:45:20;;;;;;;33.08;17.63;;;9.10;95.30;;;;;;4956814;28;20137;-70
2023/02/21 08:47:48;;;;;;;37.80;17.85;;;9.20;94.80;;;;;;4973993;28;20039;-70
2023/02/21 08:50:16;;;;;;;39.05;18.83;;;9.30;94.40;;;;;;4973437;28;20054;-71
2023/02/21 08:52:46;;;;;;;38.85;18.88;;;9.60;94.50;;;;;;4974117;28;20062;-69
2023/02/21 08:55:13;;;;;;;36.40;18.47;;;9.90;93.80;;;;;;4973812;28;20060;-68
2023/02/21 08:57:41;;;;;;;40.53;18.63;;;10.10;93.10;;;;;;4974112;28;20283;-68
2023/02/21 09:00:12;;;;;;;37.75;18.73;;;10.20;92.80;;;;;;4973204;28;20039;-69
2023/02/21 09:02:39;;;;;;;43.25;17.90;;;10.40;92.10;;;;;;4970173;28;20035;-70
2023/02/21 09:05:17;;;;;;;39.70;18.25;;;10.40;91.50;;;;;;4974135;28;20068;-69
2023/02/21 09:07:48;;;;;;;40.55;18.77;;;10.40;91.10;;;;;;4973396;28;20403;-69
2023/02/21 09:10:16;;;;;;;44.95;18.88;;;10.40;91.30;;;;;;4973705;28;20070;-70
2023/02/21 09:12:44;;;;;;;45.13;19.15;;;10.60;91.20;;;;;;4969954;28;20074;-71
2023/02/21 09:15:14;;;;;;;40.10;18.02;;;10.80;90.50;;;;;;4973221;28;20050;-73
2023/02/21 09:17:42;;;;;;;39.67;19.52;;;11.40;95.00;;;;;;4972235;28;20046;-71
2023/02/21 09:20:14;;;;;;;39.30;17.58;;;12.00;94.40;;;;;;4973412;28;20066;-71
2023/02/21 09:22:46;;;;;;;67.90;20.65;;;12.30;92.90;;;;;;4965311;28;20491;-72
2023/02/21 09:25:17;;;;;;;119.20;26.02;;;12.70;93.20;;;;;;4972738;28;20043;-70
2023/02/21 09:27:44;;;;;;;43.65;19.10;;;12.50;89.90;;;;;;4973374;28;20038;-73
2023/02/21 09:30:16;;;;;;;39.53;18.80;;;12.70;88.10;;;;;;4968058;28;20131;-72
2023/02/21 09:32:44;;;;;;;39.88;18.33;;;12.00;86.20;;;;;;4965167;28;20044;-71
2023/02/21 09:35:13;;;;;;;43.90;18.08;;;12.10;90.20;;;;;;4963502;28;20043;-73
2023/02/21 09:37:41;;;;;;;44.30;19.00;;;12.50;87.00;;;;;;4964062;28;20078;-72
2023/02/21 09:40:14;;;;;;;42.05;17.45;;;13.00;86.50;;;;;;4966121;28;20039;-72
2023/02/21 09:42:42;;;;;;;39.70;17.20;;;13.10;81.20;;;;;;4966999;28;20137;-73
2023/02/21 09:45:18;;;;;;;54.80;26.17;;;12.90;83.00;;;;;;4967930;28;20035;-73
2023/02/21 09:47:50;;;;;;;45.80;22.20;;;12.80;81.80;;;;;;4968195;28;20117;-69
2023/02/21 09:50:22;;;;;;;40.78;21.65;;;12.60;83.90;;;;;;4983186;28;20042;-70
2023/02/21 09:52:49;;;;;;;34.60;18.80;;;13.00;82.20;;;;;;4983644;28;20034;-70
2023/02/21 09:55:19;;;;;;;29.30;15.15;;;13.10;80.10;;;;;;4975146;28;20383;-70
2023/02/21 09:57:46;;;;;;;34.20;17.58;;;13.30;79.60;;;;;;4983759;28;20445;-71
2023/02/21 10:00:22;;;;;;;28.33;15.82;;;13.90;79.90;;;;;;4980854;28;20089;-71
2023/02/21 10:03:16;;;;;;;34.30;16.90;;;14.10;77.00;;;;;;4969126;28;20031;-71
2023/02/21 10:06:04;;;;;;;38.35;17.02;;;14.20;76.80;;;;;;4969690;28;20110;-71
2023/02/21 10:08:40;;;;;;;35.60;17.25;;;14.50;76.20;;;;;;4973781;28;20045;-69
2023/02/21 10:11:39;;;;;;;35.17;17.52;;;14.50;75.00;;;;;;4976371;28;20043;-71
2023/02/21 10:14:36;;;;;;;30.65;17.00;;;14.70;74.80;;;;;;4975462;28;20359;-69
2023/02/21 10:17:17;;;;;;;34.05;16.45;;;13.70;73.60;;;;;;4949491;28;20446;-68
2023/02/21 10:19:49;;;;;;;30.08;15.65;;;13.70;74.70;;;;;;4977118;28;20053;-70
2023/02/21 10:22:24;;;;;;;35.63;17.52;;;14.30;76.60;;;;;;4955746;28;20047;-69
2023/02/21 10:24:52;;;;;;;36.17;21.10;;;14.90;73.20;;;;;;4969644;28;20043;-69
2023/02/21 10:27:26;;;;;;;34.70;18.90;;;15.00;71.70;;;;;;4968267;28;20041;-70
2023/02/21 10:30:04;;;;;;;26.27;15.45;;;15.10;71.10;;;;;;4969595;28;20049;-72
2023/02/21 10:32:32;;;;;;;26.63;14.55;;;15.20;70.70;;;;;;4970839;28;20773;-71
2023/02/21 10:34:59;;;;;;;24.48;13.82;;;15.40;69.20;;;;;;4970018;28;20109;-73
2023/02/21 10:37:41;;;;;;;28.27;14.48;;;15.30;68.50;;;;;;4954602;28;20055;-72
2023/02/21 10:40:29;;;;;;;26.48;15.02;;;15.50;69.20;;;;;;4962182;28;20046;-69
2023/02/21 10:43:07;;;;;;;27.75;13.95;;;15.70;68.20;;;;;;4969470;28;20401;-72
2023/02/21 10:45:44;;;;;;;26.30;14.60;;;15.50;66.80;;;;;;4964230;28;20093;-71
2023/02/21 10:48:14;;;;;;;42.60;15.85;;;15.70;67.00;;;;;;4970849;28;20042;-68
2023/02/21 10:50:50;;;;;;;33.80;14.52;;;15.80;64.80;;;;;;4968258;28;20043;-70
2023/02/21 10:53:34;;;;;;;25.52;13.23;;;15.80;66.00;;;;;;4971647;28;20125;-70
2023/02/21 10:56:17;;;;;;;27.52;14.38;;;16.00;66.60;;;;;;4969641;28;20042;-71
2023/02/21 10:58:51;;;;;;;28.00;13.35;;;16.30;65.00;;;;;;4962371;28;20050;-72
2023/02/21 11:01:21;;;;;;;27.48;14.52;;;16.30;65.50;;;;;;4963187;28;20043;-71
2023/02/21 11:03:50;;;;;;;;;;;16.80;63.70;;;;;;4967389;28;20050;-72
2023/02/21 11:06:31;;;;;;;29.80;13.50;;;16.70;63.10;;;;;;4970114;28;19926;-72
2023/02/21 11:08:59;;;;;;;22.60;12.45;;;17.10;61.80;;;;;;4968995;28;20043;-72
2023/02/21 11:11:39;;;;;;;22.40;11.52;;;16.90;62.10;;;;;;4967922;28;20430;-69
2023/02/21 11:14:33;;;;;;;19.65;11.60;;;19.50;57.00;;;;;;4970160;28;20043;-69
2023/02/21 11:17:16;;;;;;;23.23;13.55;;;23.00;50.70;;;;;;4966785;28;20047;-70
2023/02/21 11:19:48;;;;;;;24.33;14.85;;;24.40;45.40;;;;;;4969156;28;20454;-69
2023/02/21 11:22:20;;;;;;;28.13;20.00;;;24.80;44.60;;;;;;4953861;28;20494;-70
2023/02/21 11:25:05;;;;;;;21.83;11.40;;;25.00;42.00;;;;;;4967652;28;20457;-70
2023/02/21 11:27:35;;;;;;;19.08;10.65;;;24.80;43.50;;;;;;4963250;28;20057;-73
2023/02/21 11:30:15;;;;;;;21.20;11.43;;;25.00;42.70;;;;;;4968781;28;20031;-72
2023/02/21 11:33:06;;;;;;;21.40;12.52;;;23.80;43.40;;;;;;4966401;28;20039;-72
2023/02/21 11:35:38;;;;;;;21.83;11.10;;;25.20;42.90;;;;;;4943721;28;20034;-73
2023/02/21 11:38:27;;;;;;;20.73;10.57;;;23.00;44.10;;;;;;4971682;28;20446;-72
2023/02/21 11:40:55;;;;;;;19.63;8.83;;;21.00;48.10;;;;;;4959457;28;20125;-71
2023/02/21 11:43:31;;;;;;;15.45;8.77;;;20.40;50.70;;;;;;4974332;28;20089;-71
2023/02/21 11:46:26;;;;;;;16.73;7.78;;;20.20;49.90;;;;;;4970674;28;20045;-68
2023/02/21 11:49:13;;;;;;;12.63;6.72;;;19.60;50.50;;;;;;4971635;28;20034;-72
2023/02/21 11:52:11;;;;;;;12.98;5.55;;;19.50;50.60;;;;;;4973165;28;20043;-71
2023/02/21 11:54:39;;;;;;;12.00;5.18;;;19.10;50.60;;;;;;4971430;28;20043;-66
2023/02/21 11:57:44;;;;;;;7.05;4.18;;;19.50;50.40;;;;;;4973076;28;20054;-68
2023/02/21 12:00:28;;;;;;;10.82;6.80;;;19.50;49.70;;;;;;4969267;28;20039;-71
2023/02/21 12:03:10;;;;;;;9.75;4.15;;;20.40;49.30;;;;;;4971849;28;20042;-70
2023/02/21 12:05:48;;;;;;;9.05;4.22;;;19.90;49.80;;;;;;4971991;28;20046;-71
2023/02/21 12:08:35;;;;;;;7.20;4.05;;;20.40;49.30;;;;;;4972803;28;20462;-71
2023/02/21 12:11:25;;;;;;;8.00;4.18;;;20.40;48.50;;;;;;4966252;28;20398;-72
2023/02/21 12:14:22;;;;;;;8.75;3.97;;;20.40;48.10;;;;;;4971649;28;20371;-72
2023/02/21 12:17:20;;;;;;;12.40;6.15;;;20.10;49.30;;;;;;4969190;28;20054;-71
2023/02/21 12:19:59;;;;;;;8.52;4.40;;;20.30;49.00;;;;;;4970307;28;20054;-71
2023/02/21 12:22:37;;;;;;;12.25;5.05;;;20.30;48.20;;;;;;4971170;28;20478;-72
2023/02/21 12:25:22;;;;;;;10.20;4.95;;;20.70;49.30;;;;;;4969966;28;20047;-70
2023/02/21 12:28:01;;;;;;;11.23;4.68;;;21.60;47.90;;;;;;4972624;28;20034;-71
2023/02/21 12:30:49;;;;;;;10.02;4.70;;;24.80;44.90;;;;;;4971439;28;20038;-69
2023/02/21 12:33:28;;;;;;;8.20;4.80;;;28.10;40.10;;;;;;4973309;28;20079;-69
2023/02/21 12:36:11;;;;;;;12.10;4.68;;;29.00;38.90;;;;;;4953275;28;20047;-70
2023/02/21 12:39:12;;;;;;;12.52;5.18;;;29.20;37.50;;;;;;4968681;28;20046;-72
2023/02/21 12:42:22;;;;;;;12.23;4.70;;;29.90;37.70;;;;;;4954327;28;20055;-69
2023/02/21 12:44:58;;;;;;;10.48;5.15;;;30.70;37.20;;;;;;4938985;28;20035;-69
2023/02/21 12:47:58;;;;;;;9.35;4.20;;;30.50;37.20;;;;;;4951849;28;20050;-70
2023/02/21 12:50:37;;;;;;;9.98;4.55;;;30.50;36.70;;;;;;4956591;28;20554;-69
2023/02/21 12:53:09;;;;;;;9.15;3.95;;;29.70;37.10;;;;;;4939284;28;20130;-73
2023/02/21 12:55:48;;;;;;;8.93;4.80;;;29.40;36.90;;;;;;4961177;28;20437;-70
2023/02/21 12:58:37;;;;;;;10.73;4.32;;;29.80;36.80;;;;;;4954974;28;20490;-70
2023/02/21 13:01:20;;;;;;;12.18;4.68;;;30.40;36.40;;;;;;4938536;28;20523;-71
2023/02/21 13:04:02;;;;;;;7.15;4.18;;;29.20;36.80;;;;;;4938484;28;20562;-68
2023/02/21 13:06:36;;;;;;;7.82;5.00;;;29.50;35.90;;;;;;4970570;28;20527;-71
2023/02/21 13:09:06;;;;;;;10.65;4.82;;;29.60;36.10;;;;;;4968125;28;20076;-70
2023/02/21 13:11:56;;;;;;;7.15;3.85;;;30.70;36.40;;;;;;4952567;28;20410;-70
2023/02/21 13:14:38;;;;;;;7.15;3.88;;;30.80;34.80;;;;;;4947944;28;20066;-75
2023/02/21 13:17:09;;;;;;;7.47;4.07;;;30.60;34.80;;;;;;4961249;28;20034;-72
2023/02/21 13:20:04;;;;;;;9.93;4.55;;;30.40;35.50;;;;;;4951298;28;20121;-69
2023/02/21 13:26:23;;;;;;;36.17;30.95;;;29.70;36.10;;;;;;4969858;28;20490;-68
2023/02/21 13:28:55;;;;;;;45.00;36.38;;;31.90;35.10;;;;;;4972217;28;20049;-69
2023/02/21 13:31:26;;;;;;;10.35;6.63;;;31.30;34.60;;;;;;4968709;28;20041;-69
2023/02/21 13:33:58;;;;;;;7.95;4.53;;;31.50;34.80;;;;;;4940224;28;20281;-70
2023/02/21 13:36:27;;;;;;;8.93;4.10;;;31.70;34.50;;;;;;4972103;28;20146;-69
2023/02/21 13:39:05;;;;;;;8.23;4.55;;;31.90;34.70;;;;;;4972113;28;20407;-69
2023/02/21 13:41:55;;;;;;;7.60;3.72;;;32.10;34.30;;;;;;4955280;28;20121;-71
2023/02/21 13:44:32;;;;;;;6.95;3.97;;;32.30;34.20;;;;;;4940271;28;20038;-69
2023/02/21 13:47:12;;;;;;;6.68;3.90;;;31.80;34.00;;;;;;4951117;28;20396;-71
2023/02/21 13:49:41;;;;;;;9.13;3.65;;;31.70;34.30;;;;;;4971930;28;20054;-70
2023/02/21 13:52:21;;;;;;;9.90;4.25;;;31.70;33.90;;;;;;4954941;28;20105;-71
2023/02/21 13:55:13;;;;;;;13.00;5.03;;;32.40;34.10;;;;;;4954124;28;20130;-71
2023/02/21 13:57:59;;;;;;;13.68;5.75;;;32.40;34.10;;;;;;4938824;28;20390;-71
2023/02/21 14:00:26;;;;;;;9.13;4.82;;;30.80;34.40;;;;;;4938158;28;20145;-70
2023/02/21 14:03:23;;;;;;;11.57;5.88;;;32.20;34.00;;;;;;4928502;28;20042;-71
2023/02/21 14:05:51;;;;;;;12.95;4.97;;;31.70;34.80;;;;;;4950976;28;20038;-70
2023/02/21 14:08:48;;;;;;;8.48;4.13;;;31.30;34.30;;;;;;4953847;28;20054;-70
2023/02/21 14:11:27;;;;;;;11.05;5.07;;;31.00;34.60;;;;;;4944239;28;20153;-71
2023/02/21 14:13:56;;;;;;;11.15;4.90;;;30.50;34.50;;;;;;4953482;28;20063;-69
2023/02/21 14:16:46;;;;;;;11.77;4.82;;;30.10;34.60;;;;;;4944694;28;20043;-69
2023/02/21 14:19:29;;;;;;;10.23;4.75;;;30.40;34.70;;;;;;4950190;28;20047;-70
2023/02/21 14:22:15;;;;;;;11.18;5.03;;;29.00;35.10;;;;;;4933902;29;20059;-70
2023/02/21 14:24:47;;;;;;;8.75;4.80;;;29.90;34.60;;;;;;4932188;29;20050;-71
2023/02/21 14:27:17;;;;;;;9.18;4.63;;;30.10;34.60;;;;;;4937855;28;20145;-70
2023/02/21 14:30:05;;;;;;;9.73;4.25;;;30.50;34.40;;;;;;4937101;28;20079;-71
2023/02/21 14:32:46;;;;;;;8.40;4.32;;;29.80;34.00;;;;;;4938754;28;20129;-70
2023/02/21 14:35:29;;;;;;;8.60;4.43;;;29.80;34.00;;;;;;4933471;28;20130;-70
2023/02/21 14:38:02;;;;;;;8.55;4.00;;;30.60;34.10;;;;;;4926117;29;20047;-72
2023/02/21 14:41:07;;;;;;;10.95;4.90;;;30.60;33.60;;;;;;4952186;28;20046;-72
2023/02/21 14:43:55;;;;;;;6.95;3.92;;;30.20;33.60;;;;;;4927964;28;20051;-69
2023/02/21 14:46:39;;;;;;;8.90;4.53;;;29.50;33.90;;;;;;4972342;28;20035;-69
2023/02/21 14:49:36;;;;;;;9.68;4.18;;;29.80;34.40;;;;;;4972099;28;20034;-73
2023/02/21 14:52:09;;;;;;;8.18;4.43;;;29.40;34.80;;;;;;4972050;28;20054;-72
2023/02/21 14:55:06;;;;;;;9.02;4.53;;;30.50;34.20;;;;;;4971372;28;20042;-73
2023/02/21 14:57:42;;;;;;;7.55;3.90;;;30.10;34.00;;;;;;4964520;28;20416;-72
2023/02/21 15:01:00;;;;;;;7.60;4.45;;;30.10;34.20;;;;;;4969985;28;20039;-69
2023/02/21 15:03:50;;;;;;;8.20;4.20;;;29.80;34.20;;;;;;4892641;29;20481;-72
2023/02/21 15:06:21;;;;;;;8.70;5.38;;;29.80;34.60;;;;;;4890753;29;20055;-69
2023/02/21 15:08:50;;;;;;;8.38;5.85;;;29.80;34.80;;;;;;4933246;28;20054;-71
2023/02/21 15:11:36;;;;;;;8.50;5.30;;;29.90;35.30;;;;;;4968062;28;20117;-71
2023/02/21 15:14:11;;;;;;;7.55;4.70;;;29.00;35.30;;;;;;4969262;28;20035;-72
2023/02/21 15:16:45;;;;;;;7.25;4.60;;;28.60;35.60;;;;;;4974185;28;20400;-70
2023/02/21 15:19:21;;;;;;;7.40;4.10;;;28.70;35.70;;;;;;4972637;28;20050;-69
2023/02/21 15:22:05;;;;;;;8.27;4.63;;;28.80;35.40;;;;;;4975429;28;20047;-69
2023/02/21 15:24:34;;;;;;;8.70;4.50;;;28.60;35.60;;;;;;4969467;28;20035;-70
2023/02/21 15:27:10;;;;;;;7.90;4.03;;;28.40;35.90;;;;;;4936744;28;20053;-71
2023/02/21 15:29:39;;;;;;;9.07;3.97;;;27.00;37.10;;;;;;4973660;28;20038;-72
2023/02/21 15:32:11;;;;;;;12.00;5.63;;;25.60;37.40;;;;;;4954025;28;20050;-72
2023/02/21 15:34:41;;;;;;;7.13;4.10;;;26.20;38.10;;;;;;4940042;28;20097;-72